Time;durP1;ratioP1;P1;durP2;ratioP2;P2;SDS_P1;SDS_P2;PMS_P1;PMS_P2;Temp;Humidity;BMP_temperature;BMP_pressure;BME280_temperature;BME280_humidity;BME280_pressure;Samples;Min_cycle;Max_cycle;Signal;HPM_P1;HPM_P2
2022/08/11 00:02:35;;;;;;;2.57;2.37;;;28.10;36.40;;;;;;4984804;28;20549;-68
2022/08/11 00:05:08;;;;;;;2.80;2.60;;;28.10;36.30;;;;;;4997641;28;20449;-68
2022/08/11 00:07:43;;;;;;;2.53;2.37;;;28.10;36.30;;;;;;4993727;28;20806;-68
2022/08/11 00:10:14;;;;;;;2.70;2.50;;;28.00;36.40;;;;;;4996808;28;20479;-68
2022/08/11 00:12:43;;;;;;;2.47;2.27;;;28.00;36.50;;;;;;4984047;28;20505;-68
2022/08/11 00:15:13;;;;;;;2.63;2.43;;;28.00;36.40;;;;;;5001881;28;20437;-68
2022/08/11 00:17:43;;;;;;;2.53;2.33;;;28.00;36.40;;;;;;4986177;28;20977;-68
2022/08/11 00:20:14;;;;;;;2.87;2.67;;;28.00;36.40;;;;;;5003143;28;20477;-68
2022/08/11 00:22:47;;;;;;;3.37;2.80;;;28.00;36.40;;;;;;4993486;28;20465;-68
2022/08/11 00:25:18;;;;;;;2.63;2.43;;;28.00;36.50;;;;;;4995162;28;20910;-68
2022/08/11 00:27:48;;;;;;;2.77;2.57;;;28.00;36.50;;;;;;4999734;28;20461;-68
2022/08/11 00:30:18;;;;;;;2.57;2.20;;;28.00;36.50;;;;;;4987429;28;20520;-67
2022/08/11 00:32:55;;;;;;;2.87;2.67;;;28.00;36.40;;;;;;4971911;28;20433;-68
2022/08/11 00:35:27;;;;;;;3.40;2.80;;;28.00;36.50;;;;;;4989254;28;20474;-68
2022/08/11 00:38:17;;;;;;;2.80;2.40;;;28.00;36.40;;;;;;4995383;28;20434;-68
2022/08/11 00:40:55;;;;;;;3.83;3.00;;;28.00;36.40;;;;;;4984416;28;20497;-68
2022/08/11 00:43:38;;;;;;;2.63;2.43;;;28.00;36.40;;;;;;4973163;28;20450;-68
2022/08/11 00:46:17;;;;;;;2.17;2.07;;;28.00;36.40;;;;;;4996331;28;20481;-68
2022/08/11 00:48:55;;;;;;;2.87;2.40;;;28.00;36.40;;;;;;5000418;28;20878;-68
2022/08/11 00:51:42;;;;;;;2.90;2.53;;;28.00;36.40;;;;;;4978193;28;20492;-68
2022/08/11 00:55:06;;;;;;;3.00;2.80;;;28.00;36.60;;;;;;4991108;28;20473;-68
2022/08/11 00:58:16;;;;;;;2.60;2.40;;;28.00;36.40;;;;;;5038428;23;20532;-73
2022/08/11 01:01:09;;;;;;;3.17;2.30;;;28.00;36.70;;;;;;4984312;28;20474;-73
2022/08/11 01:04:09;;;;;;;3.50;2.63;;;28.00;36.80;;;;;;5006093;28;21908;-72
2022/08/11 01:07:13;;;;;;;2.70;2.50;;;28.00;36.90;;;;;;5022434;28;20463;-72
2022/08/11 01:10:07;;;;;;;2.73;2.53;;;27.90;36.80;;;;;;5007207;28;21000;-72
2022/08/11 01:12:55;;;;;;;2.60;2.40;;;28.00;36.80;;;;;;5008071;28;20472;-72
2022/08/11 01:16:03;;;;;;;2.90;2.67;;;28.00;36.80;;;;;;5007178;28;20475;-73
2022/08/11 01:19:04;;;;;;;3.03;2.53;;;28.00;36.90;;;;;;5017973;28;20463;-72
2022/08/11 01:22:09;;;;;;;2.97;2.67;;;28.00;36.50;;;;;;5023975;28;20522;-73
2022/08/11 01:25:01;;;;;;;2.63;2.43;;;28.00;36.80;;;;;;5006161;28;20515;-72
2022/08/11 01:28:25;;;;;;;3.07;2.80;;;28.00;36.80;;;;;;5004573;28;20449;-73
2022/08/11 01:31:18;;;;;;;2.47;2.27;;;27.90;36.60;;;;;;4927936;29;20535;-73
2022/08/11 01:34:15;;;;;;;3.00;2.80;;;27.90;36.50;;;;;;5001092;28;20448;-72
2022/08/11 01:37:16;;;;;;;3.30;3.00;;;27.90;36.80;;;;;;5009313;28;20467;-72
2022/08/11 01:40:19;;;;;;;2.90;2.70;;;27.90;37.00;;;;;;5001315;28;20523;-72
2022/08/11 01:46:20;;;;;;;2.40;2.20;;;27.90;36.80;;;;;;5024386;28;20526;-72
2022/08/11 01:49:00;;;;;;;2.70;2.50;;;27.90;38.10;;;;;;4990621;28;20449;-73
2022/08/11 01:52:04;;;;;;;3.10;2.90;;;27.90;38.10;;;;;;5008677;28;20881;-72
2022/08/11 01:54:42;;;;;;;2.83;2.63;;;27.90;36.60;;;;;;5005606;28;20610;-72
2022/08/11 01:57:21;;;;;;;2.20;2.10;;;27.90;37.00;;;;;;5024599;28;20451;-72
2022/08/11 01:59:52;;;;;;;3.27;2.97;;;27.90;37.00;;;;;;5033108;28;20479;-73
2022/08/11 02:02:46;;;;;;;2.80;2.60;;;27.90;36.90;;;;;;5011963;28;20881;-72
2022/08/11 02:05:44;;;;;;;3.33;3.00;;;27.90;36.90;;;;;;5019515;28;20473;-72
2022/08/11 02:08:28;;;;;;;3.70;3.23;;;27.90;36.80;;;;;;5006474;28;20436;-73
2022/08/11 02:11:33;;;;;;;3.03;2.60;;;27.90;36.80;;;;;;5011265;28;20586;-72
2022/08/11 02:14:26;;;;;;;3.73;2.63;;;27.90;36.80;;;;;;5004523;28;20434;-72
2022/08/11 02:17:11;;;;;;;2.90;2.70;;;27.90;36.70;;;;;;5000138;28;20449;-72
2022/08/11 02:25:38;;;;;;;3.30;3.00;;;27.80;36.80;;;;;;5027017;28;20833;-72
2022/08/11 02:28:17;;;;;;;3.07;2.87;;;27.80;36.80;;;;;;5018578;28;20874;-73
2022/08/11 02:33:21;;;;;;;3.20;3.00;;;27.80;36.70;;;;;;5011056;28;20475;-72
2022/08/11 02:34:17;;;;;;;3.27;3.07;;;27.80;36.90;;;;;;5017090;28;20443;-72
2022/08/11 02:36:55;;;;;;;3.40;2.90;;;27.80;36.80;;;;;;5012113;28;20600;-72
2022/08/11 02:39:31;;;;;;;3.10;2.90;;;27.80;36.80;;;;;;5030187;28;20447;-72
2022/08/11 02:42:24;;;;;;;2.93;2.73;;;27.80;36.70;;;;;;5027660;28;20467;-72
2022/08/11 02:45:28;;;;;;;3.20;2.90;;;27.80;36.60;;;;;;5018490;28;20989;-71
2022/08/11 02:51:03;;;;;;;3.13;2.87;;;27.80;36.50;;;;;;5026450;28;20484;-72
2022/08/11 02:53:40;;;;;;;2.83;2.63;;;27.80;36.60;;;;;;5010842;28;20440;-72
2022/08/11 02:56:21;;;;;;;2.87;2.67;;;27.70;36.40;;;;;;5028112;28;20479;-72
2022/08/11 03:01:49;;;;;;;3.03;2.83;;;27.70;36.60;;;;;;4977851;28;20456;-72
2022/08/11 03:04:24;;;;;;;3.20;2.90;;;27.80;36.60;;;;;;5007116;28;20471;-72
2022/08/11 03:07:17;;;;;;;2.93;2.70;;;27.80;36.70;;;;;;5020502;28;20464;-72
2022/08/11 03:10:05;;;;;;;2.93;2.73;;;27.70;36.70;;;;;;5028109;28;20462;-72
2022/08/11 03:18:37;;;;;;;3.27;3.07;;;27.70;36.50;;;;;;5008715;28;20516;-72
2022/08/11 03:21:14;;;;;;;3.60;2.80;;;27.70;36.60;;;;;;5020085;28;20479;-73
2022/08/11 03:23:53;;;;;;;2.67;2.43;;;27.70;36.70;;;;;;5009910;28;20982;-72
2022/08/11 03:26:30;;;;;;;3.03;2.83;;;27.60;36.70;;;;;;5010998;28;20966;-72
2022/08/11 03:29:06;;;;;;;2.90;2.70;;;27.70;36.70;;;;;;5008737;28;20529;-72
2022/08/11 03:31:41;;;;;;;3.00;2.70;;;27.70;36.60;;;;;;5011189;28;20468;-72
2022/08/11 03:34:21;;;;;;;3.20;3.00;;;27.70;36.70;;;;;;5008340;28;20670;-73
2022/08/11 03:43:29;;;;;;;2.80;2.60;;;27.60;36.70;;;;;;5001314;28;21069;-72
2022/08/11 03:46:03;;;;;;;2.90;2.70;;;27.70;36.60;;;;;;5026175;28;20475;-72
2022/08/11 03:48:47;;;;;;;3.30;3.10;;;27.60;36.60;;;;;;5015652;28;21024;-72
2022/08/11 03:51:25;;;;;;;3.10;2.90;;;27.60;36.50;;;;;;4988022;28;20583;-72
2022/08/11 03:54:20;;;;;;;4.33;3.33;;;27.60;36.50;;;;;;5009084;28;20472;-72
2022/08/11 03:57:35;;;;;;;2.50;2.30;;;27.60;36.70;;;;;;5009832;28;21024;-72
2022/08/11 04:00:14;;;;;;;3.20;3.00;;;27.60;36.60;;;;;;4926536;29;20463;-72
2022/08/11 04:03:24;;;;;;;2.90;2.70;;;27.60;36.60;;;;;;4998544;28;20459;-72
2022/08/11 04:06:46;;;;;;;4.40;3.03;;;27.60;36.70;;;;;;5009216;28;20512;-72
2022/08/11 04:09:48;;;;;;;5.03;2.77;;;27.60;36.40;;;;;;5026190;28;20970;-72
2022/08/11 04:12:47;;;;;;;3.43;3.13;;;27.60;36.50;;;;;;5009684;28;20475;-72
2022/08/11 04:16:01;;;;;;;2.77;2.57;;;27.60;36.70;;;;;;4989778;28;20465;-73
2022/08/11 04:19:28;;;;;;;2.60;2.40;;;27.60;36.60;;;;;;5005611;28;20739;-72
2022/08/11 04:22:36;;;;;;;3.43;3.13;;;27.60;36.70;;;;;;4984287;28;20465;-72
2022/08/11 04:25:37;;;;;;;2.80;2.60;;;27.60;36.40;;;;;;5013462;28;20475;-72
2022/08/11 04:28:49;;;;;;;3.13;2.93;;;27.50;36.60;;;;;;5007225;28;20447;-72
2022/08/11 04:31:37;;;;;;;2.60;2.40;;;27.50;36.70;;;;;;5023148;28;20460;-72
2022/08/11 04:34:47;;;;;;;3.80;3.50;;;27.50;36.50;;;;;;5020284;28;20443;-73
2022/08/11 04:37:35;;;;;;;2.83;2.63;;;27.50;36.60;;;;;;5009716;28;20453;-72
2022/08/11 04:40:31;;;;;;;3.07;2.77;;;27.50;36.60;;;;;;5009471;28;20455;-72
2022/08/11 04:43:57;;;;;;;2.80;2.60;;;27.50;36.60;;;;;;5005492;28;20472;-72
2022/08/11 04:47:08;;;;;;;3.40;3.20;;;27.50;36.70;;;;;;4971578;28;20970;-72
2022/08/11 05:02:43;;;;;;;4.37;3.10;;;27.50;36.70;;;;;;5010268;28;20456;-72
2022/08/11 05:05:33;;;;;;;3.13;2.83;;;27.40;36.40;;;;;;5019987;28;20470;-72
2022/08/11 05:08:49;;;;;;;2.93;2.67;;;27.40;36.70;;;;;;5020037;28;20923;-72
2022/08/11 05:11:58;;;;;;;4.53;3.70;;;27.40;36.60;;;;;;5009510;28;20562;-72
2022/08/11 05:35:06;;;;;;;3.50;3.00;;;27.40;36.90;;;;;;5005727;28;20981;-68
2022/08/11 05:58:34;;;;;;;3.17;2.97;;;27.30;36.70;;;;;;4988248;28;20531;-65
2022/08/11 06:01:09;;;;;;;4.10;3.53;;;27.30;37.20;;;;;;5010747;28;20545;-65
2022/08/11 06:06:28;;;;;;;5.60;4.10;;;27.30;37.20;;;;;;5012108;28;20460;-65
2022/08/11 06:08:59;;;;;;;3.93;3.63;;;27.20;36.80;;;;;;5011694;28;20533;-64
2022/08/11 06:11:28;;;;;;;4.53;4.13;;;27.10;36.70;;;;;;5008595;28;20485;-65
2022/08/11 06:14:14;;;;;;;3.53;3.23;;;27.10;36.40;;;;;;5009999;28;20463;-64
2022/08/11 06:16:47;;;;;;;3.67;3.37;;;27.00;36.50;;;;;;5012019;28;20447;-65
2022/08/11 06:19:16;;;;;;;4.00;3.70;;;27.00;36.30;;;;;;5025254;28;20462;-65
2022/08/11 06:21:46;;;;;;;3.57;3.27;;;27.00;36.20;;;;;;5011743;28;20858;-65
2022/08/11 06:24:17;;;;;;;4.23;3.93;;;27.00;35.70;;;;;;5011939;28;20467;-64
2022/08/11 06:26:51;;;;;;;3.80;3.50;;;26.90;35.80;;;;;;5012346;28;20467;-65
2022/08/11 06:29:47;;;;;;;7.43;3.97;;;26.90;35.80;;;;;;5006656;28;20458;-64
2022/08/11 06:32:25;;;;;;;3.80;3.40;;;26.90;35.20;;;;;;5011243;28;20467;-64
2022/08/11 06:35:15;;;;;;;3.97;3.67;;;26.90;35.60;;;;;;5008858;28;20468;-65
2022/08/11 06:38:01;;;;;;;5.40;3.67;;;26.90;35.50;;;;;;5011951;28;20424;-65
2022/08/11 06:40:37;;;;;;;4.77;3.20;;;26.90;35.60;;;;;;5011223;28;21075;-65
2022/08/11 06:43:15;;;;;;;4.13;3.77;;;26.90;35.10;;;;;;5017890;28;20440;-65
2022/08/11 06:45:51;;;;;;;4.57;4.17;;;26.90;34.30;;;;;;5008547;28;20555;-65
2022/08/11 06:48:23;;;;;;;3.00;2.80;;;27.00;34.40;;;;;;5010834;28;20438;-65
2022/08/11 06:53:43;;;;;;;4.10;3.80;;;27.30;33.00;;;;;;5016286;28;20456;-71
2022/08/11 07:02:33;;;;;;;6.10;3.60;;;27.70;31.80;;;;;;5058099;28;20468;-70
2022/08/11 07:05:06;;;;;;;4.20;3.70;;;27.80;31.70;;;;;;5038814;28;20463;-71
2022/08/11 07:17:17;;;;;;;4.07;3.73;;;27.20;31.80;;;;;;5034518;28;20435;-72
2022/08/11 07:31:29;;;;;;;3.97;3.67;;;26.80;32.10;;;;;;5026118;28;20474;-70
2022/08/11 07:34:07;;;;;;;4.90;4.50;;;26.80;32.60;;;;;;5034810;28;20501;-70
2022/08/11 07:36:49;;;;;;;4.30;3.20;;;26.90;32.50;;;;;;5040965;28;20448;-72
2022/08/11 07:39:20;;;;;;;4.77;3.70;;;26.90;34.00;;;;;;5039380;28;20442;-70
2022/08/11 07:41:51;;;;;;;3.67;3.37;;;26.90;31.90;;;;;;5037638;28;20535;-70
2022/08/11 07:44:21;;;;;;;3.83;3.60;;;27.00;32.50;;;;;;5043477;28;20523;-70
2022/08/11 07:52:32;;;;;;;4.67;3.80;;;27.00;32.10;;;;;;5047204;28;20450;-70
2022/08/11 07:55:05;;;;;;;3.50;3.30;;;27.00;31.40;;;;;;5041404;28;20495;-70
2022/08/11 08:17:51;;;;;;;5.60;4.07;;;27.10;31.90;;;;;;5034096;28;20490;-70
2022/08/11 08:20:46;;;;;;;4.47;4.07;;;27.20;32.00;;;;;;5036514;28;20467;-70
2022/08/11 08:23:16;;;;;;;4.40;4.00;;;27.20;31.40;;;;;;5035117;28;20981;-70
2022/08/11 08:25:47;;;;;;;6.17;4.60;;;27.20;30.90;;;;;;5034232;28;20467;-70
2022/08/11 08:28:17;;;;;;;4.00;3.70;;;27.30;31.10;;;;;;5033628;28;20827;-70
2022/08/11 08:30:49;;;;;;;4.00;3.17;;;27.30;30.80;;;;;;5034266;28;20514;-70
2022/08/11 08:33:21;;;;;;;6.07;3.20;;;27.30;30.60;;;;;;5047774;28;20439;-70
2022/08/11 08:36:10;;;;;;;4.13;3.73;;;27.30;29.40;;;;;;5037520;28;21009;-70
2022/08/11 08:38:41;;;;;;;5.00;3.63;;;27.30;30.40;;;;;;5042222;28;20982;-70
2022/08/11 08:41:11;;;;;;;3.50;3.27;;;27.30;31.30;;;;;;5026563;28;20456;-70
2022/08/11 08:43:48;;;;;;;5.30;2.97;;;27.30;31.80;;;;;;5045243;28;20445;-70
2022/08/11 08:46:22;;;;;;;4.27;3.23;;;27.20;32.00;;;;;;5040228;28;20485;-70
2022/08/11 08:48:52;;;;;;;3.10;2.80;;;27.10;32.10;;;;;;5043207;28;20447;-70
2022/08/11 08:51:35;;;;;;;4.73;3.37;;;27.10;32.60;;;;;;5038213;28;20497;-72
2022/08/11 08:54:28;;;;;;;3.40;3.10;;;27.10;33.00;;;;;;5040892;28;20446;-72
2022/08/11 08:56:57;;;;;;;3.30;3.00;;;27.10;33.10;;;;;;5031172;28;20512;-70
2022/08/11 08:59:27;;;;;;;3.37;3.10;;;27.00;33.20;;;;;;5045483;28;20462;-72
2022/08/11 09:02:18;;;;;;;3.60;3.30;;;27.00;33.40;;;;;;5042874;28;20516;-70
2022/08/11 09:05:02;;;;;;;3.30;3.00;;;27.00;33.50;;;;;;5043650;28;20811;-72
2022/08/11 09:07:33;;;;;;;3.40;3.10;;;27.00;33.50;;;;;;5041918;28;20443;-70
2022/08/11 09:10:09;;;;;;;3.50;3.30;;;27.00;33.20;;;;;;5040564;28;20872;-72
2022/08/11 09:12:41;;;;;;;4.60;3.50;;;27.00;32.80;;;;;;5036935;28;20954;-72
2022/08/11 09:15:12;;;;;;;3.50;3.20;;;27.00;32.90;;;;;;5046424;28;20521;-72
2022/08/11 09:17:47;;;;;;;4.10;3.30;;;27.00;32.90;;;;;;5044783;28;20947;-72
2022/08/11 09:20:20;;;;;;;4.30;3.00;;;27.00;33.00;;;;;;5037861;28;20459;-72
2022/08/11 09:28:48;;;;;;;3.43;3.13;;;27.00;33.50;;;;;;5035799;28;20439;-71
2022/08/11 09:31:18;;;;;;;3.80;3.07;;;27.00;33.70;;;;;;5037467;28;20550;-71
2022/08/11 09:33:53;;;;;;;2.87;2.67;;;27.00;33.70;;;;;;5037430;28;20450;-71
2022/08/11 09:42:00;;;;;;;3.37;3.10;;;27.00;33.70;;;;;;5044060;28;20862;-68
2022/08/11 09:44:47;;;;;;;2.77;2.40;;;27.00;33.60;;;;;;5040854;28;20467;-67
2022/08/11 09:47:25;;;;;;;2.87;2.67;;;27.00;33.70;;;;;;5036955;28;20467;-68
2022/08/11 09:49:58;;;;;;;2.83;2.63;;;27.00;33.50;;;;;;5057557;28;20516;-68
2022/08/11 09:52:30;;;;;;;3.80;3.20;;;27.00;33.50;;;;;;5044065;28;20466;-68
2022/08/11 09:55:02;;;;;;;3.43;3.23;;;27.00;33.50;;;;;;5040076;28;20489;-67
2022/08/11 10:00:16;;;;;;;3.13;2.80;;;27.00;33.60;;;;;;5034028;28;20478;-68
2022/08/11 10:02:48;;;;;;;3.30;3.10;;;27.00;33.60;;;;;;5035312;28;20444;-68
2022/08/11 10:08:07;;;;;;;2.30;2.20;;;27.00;33.70;;;;;;5054284;28;20470;-68
2022/08/11 10:10:39;;;;;;;3.27;2.97;;;27.00;33.50;;;;;;5045114;28;20470;-68
2022/08/11 10:13:09;;;;;;;2.90;2.70;;;27.00;33.30;;;;;;5038385;28;20446;-68
2022/08/11 10:16:01;;;;;;;3.80;2.70;;;27.00;33.20;;;;;;5042473;28;21049;-68
2022/08/11 10:18:51;;;;;;;2.50;2.30;;;27.00;33.40;;;;;;5036032;28;20661;-68
2022/08/11 10:21:29;;;;;;;4.10;2.73;;;27.00;33.10;;;;;;5046512;28;20981;-68
2022/08/11 10:26:53;;;;;;;3.23;2.67;;;26.90;32.90;;;;;;5047292;28;20831;-68
2022/08/11 10:35:26;;;;;;;3.43;3.23;;;26.90;32.80;;;;;;5043590;28;20463;-68
2022/08/11 10:37:55;;;;;;;2.90;2.60;;;27.00;32.60;;;;;;5044190;28;20443;-68
2022/08/11 10:40:39;;;;;;;2.77;2.60;;;27.00;32.50;;;;;;5035424;28;20467;-68
2022/08/11 10:43:12;;;;;;;2.63;2.43;;;27.00;33.70;;;;;;5037402;28;20980;-67
2022/08/11 10:48:37;;;;;;;3.17;2.67;;;26.90;32.20;;;;;;5035611;28;20447;-67
2022/08/11 10:51:16;;;;;;;3.60;3.30;;;26.90;32.20;;;;;;5036928;28;20463;-68
2022/08/11 10:59:43;;;;;;;2.50;2.30;;;27.00;32.10;;;;;;5046349;28;20452;-72
2022/08/11 11:02:14;;;;;;;3.00;2.70;;;27.00;31.90;;;;;;5050808;28;20837;-71
2022/08/11 11:04:58;;;;;;;2.90;2.70;;;27.00;31.80;;;;;;5046051;28;20864;-72
2022/08/11 11:07:37;;;;;;;2.67;2.47;;;27.00;32.00;;;;;;5062079;28;20472;-72
2022/08/11 11:10:11;;;;;;;3.50;2.83;;;27.00;32.00;;;;;;5047482;28;20542;-72
2022/08/11 11:18:21;;;;;;;2.80;2.60;;;27.00;31.90;;;;;;5044116;28;20427;-72
2022/08/11 11:20:56;;;;;;;2.80;2.60;;;27.00;31.80;;;;;;5030098;28;20484;-72
2022/08/11 11:23:27;;;;;;;2.80;2.60;;;27.00;31.90;;;;;;5043316;28;20430;-72
2022/08/11 11:26:19;;;;;;;2.80;2.60;;;27.00;31.80;;;;;;5047185;28;20478;-72
2022/08/11 11:29:31;;;;;;;3.93;2.80;;;27.00;31.80;;;;;;5042243;28;21198;-72
2022/08/11 11:32:15;;;;;;;3.23;3.00;;;27.00;32.00;;;;;;5030081;28;20470;-72
2022/08/11 11:35:00;;;;;;;2.37;2.27;;;27.00;31.70;;;;;;5058089;28;20444;-72
2022/08/11 11:37:32;;;;;;;2.70;2.50;;;27.00;31.80;;;;;;5042097;28;20438;-71
2022/08/11 11:40:02;;;;;;;3.23;3.03;;;27.00;31.90;;;;;;5043815;28;20530;-71
2022/08/11 11:42:30;;;;;;;3.47;3.27;;;27.00;31.70;;;;;;5038973;28;20467;-71
2022/08/11 11:44:59;;;;;;;3.30;3.10;;;27.00;31.80;;;;;;5045776;28;20818;-71
2022/08/11 11:47:31;;;;;;;3.43;2.90;;;27.00;31.70;;;;;;5049895;28;20858;-71
2022/08/11 11:50:00;;;;;;;2.90;2.70;;;27.00;31.90;;;;;;5038874;28;20835;-71
2022/08/11 11:52:48;;;;;;;3.23;3.00;;;27.00;31.90;;;;;;5033177;28;20464;-67
2022/08/11 11:55:17;;;;;;;2.90;2.70;;;27.00;32.00;;;;;;5040904;28;20489;-67
2022/08/11 12:03:22;;;;;;;2.30;2.13;;;27.00;32.00;;;;;;5040810;28;20420;-67
2022/08/11 12:05:52;;;;;;;3.80;2.90;;;27.00;32.00;;;;;;5035195;28;20472;-67
2022/08/11 12:08:21;;;;;;;3.83;3.53;;;27.00;31.80;;;;;;5040832;28;20928;-68
2022/08/11 12:13:40;;;;;;;3.23;2.93;;;27.10;31.80;;;;;;5043946;28;20527;-67
2022/08/11 12:16:11;;;;;;;2.70;2.50;;;27.10;31.80;;;;;;5040435;28;20464;-67
2022/08/11 12:19:06;;;;;;;3.33;3.03;;;27.00;31.80;;;;;;5032082;28;20435;-67
2022/08/11 12:21:36;;;;;;;2.90;2.70;;;27.10;31.90;;;;;;5035704;28;20861;-68
2022/08/11 12:29:47;;;;;;;2.83;2.57;;;27.10;31.90;;;;;;5027260;28;20520;-67
2022/08/11 12:32:29;;;;;;;2.93;2.73;;;27.10;31.80;;;;;;5047302;28;20987;-67
2022/08/11 12:35:18;;;;;;;3.00;2.80;;;27.10;31.90;;;;;;5041898;28;20475;-67
2022/08/11 12:37:54;;;;;;;3.60;3.30;;;27.10;31.80;;;;;;5038896;28;20469;-67
2022/08/11 12:46:33;;;;;;;3.20;2.90;;;27.10;31.60;;;;;;5041403;28;21643;-68
2022/08/11 12:52:01;;;;;;;3.30;3.10;;;27.10;31.70;;;;;;5038765;28;20896;-71
2022/08/11 12:54:50;;;;;;;2.83;2.53;;;27.10;31.60;;;;;;5034011;28;20974;-71
2022/08/11 13:05:48;;;;;;;3.23;3.00;;;27.20;31.80;;;;;;5002518;28;20460;-72
2022/08/11 13:08:20;;;;;;;3.40;3.10;;;27.20;31.70;;;;;;5000648;28;20546;-72
2022/08/11 13:13:41;;;;;;;3.43;3.23;;;27.20;31.70;;;;;;5002897;28;20476;-72
2022/08/11 13:16:26;;;;;;;3.00;2.80;;;27.20;31.70;;;;;;5005576;28;20503;-71
2022/08/11 13:18:55;;;;;;;3.13;2.53;;;27.20;31.60;;;;;;5001967;28;20519;-72
2022/08/11 13:21:24;;;;;;;3.17;2.87;;;27.20;31.70;;;;;;4985833;28;20481;-72
2022/08/11 13:23:55;;;;;;;2.93;2.73;;;27.20;31.70;;;;;;5005068;28;20438;-72
2022/08/11 13:26:30;;;;;;;2.87;2.67;;;27.20;31.70;;;;;;4996975;28;20720;-72
2022/08/11 13:29:17;;;;;;;2.90;2.60;;;27.20;31.70;;;;;;4986204;28;20448;-72
2022/08/11 13:31:46;;;;;;;3.30;3.10;;;27.20;33.10;;;;;;5001222;28;20457;-72
2022/08/11 13:34:16;;;;;;;3.35;3.05;;;27.30;32.00;;;;;;5007820;28;20967;-71
2022/08/11 13:36:45;;;;;;;3.13;2.93;;;27.30;32.90;;;;;;5003381;28;20198;-72
2022/08/11 13:39:16;;;;;;;3.30;3.00;;;27.30;31.70;;;;;;5015131;28;20440;-71
2022/08/11 13:41:46;;;;;;;4.63;3.27;;;27.40;31.80;;;;;;4997601;28;20481;-72
2022/08/11 13:44:17;;;;;;;3.63;3.15;;;27.30;31.70;;;;;;5004247;28;20443;-70
2022/08/11 13:46:55;;;;;;;3.33;3.03;;;27.40;31.40;;;;;;5021253;28;20268;-71
2022/08/11 13:49:24;;;;;;;2.70;2.60;;;27.40;31.10;;;;;;5002439;28;20535;-71
2022/08/11 13:51:54;;;;;;;3.13;2.93;;;27.40;31.20;;;;;;5014631;28;20460;-72
2022/08/11 13:54:27;;;;;;;2.90;2.70;;;27.40;31.50;;;;;;5010034;28;20429;-71
2022/08/11 13:56:59;;;;;;;3.23;3.00;;;27.40;31.80;;;;;;5006925;28;20457;-71
2022/08/11 13:59:28;;;;;;;3.67;3.30;;;27.40;31.50;;;;;;5013929;28;20464;-71
2022/08/11 14:02:05;;;;;;;3.27;3.07;;;27.40;31.60;;;;;;5006606;28;20482;-71
2022/08/11 14:04:56;;;;;;;3.17;2.93;;;27.40;32.90;;;;;;5001146;28;20532;-71
2022/08/11 14:07:27;;;;;;;5.40;2.93;;;27.40;31.80;;;;;;4990256;28;20466;-72
2022/08/11 14:09:59;;;;;;;3.60;3.30;;;27.40;31.70;;;;;;5023920;28;20626;-71
2022/08/11 14:15:20;;;;;;;3.10;2.80;;;27.40;31.80;;;;;;5003637;28;20433;-71
2022/08/11 14:17:52;;;;;;;3.53;3.23;;;27.40;31.90;;;;;;5008037;28;20426;-71
2022/08/11 14:20:22;;;;;;;3.80;3.30;;;27.40;31.80;;;;;;5003518;28;20552;-71
2022/08/11 14:23:12;;;;;;;3.23;3.03;;;27.40;31.80;;;;;;5018455;28;20812;-72
2022/08/11 14:26:22;;;;;;;2.67;2.47;;;27.40;31.90;;;;;;5021421;28;20484;-73
2022/08/11 14:28:34;;;;;;;3.10;2.90;;;27.40;31.80;;;;;;5005364;28;20507;-72
2022/08/11 14:31:09;;;;;;;6.23;3.27;;;27.50;31.60;;;;;;5006510;28;20483;-71
2022/08/11 14:33:38;;;;;;;4.07;3.43;;;27.60;30.60;;;;;;5007331;28;20429;-72
2022/08/11 14:36:29;;;;;;;4.30;4.00;;;27.60;31.10;;;;;;5007554;28;21086;-72
2022/08/11 14:38:58;;;;;;;3.93;3.50;;;27.70;31.50;;;;;;5009340;28;20441;-71
2022/08/11 14:47:24;;;;;;;4.00;3.27;;;27.80;31.30;;;;;;4998920;28;20783;-71
2022/08/11 14:49:55;;;;;;;3.63;3.43;;;27.80;31.40;;;;;;5018108;28;20468;-72
2022/08/11 14:52:44;;;;;;;3.53;3.33;;;27.90;31.30;;;;;;5012743;28;20461;-71
2022/08/11 14:58:02;;;;;;;3.47;3.20;;;27.90;31.30;;;;;;5013559;28;20833;-72
2022/08/11 15:00:32;;;;;;;3.90;3.60;;;28.00;31.50;;;;;;4997012;28;20667;-71
2022/08/11 15:03:11;;;;;;;4.00;3.70;;;28.00;31.50;;;;;;5007918;28;20516;-71
2022/08/11 15:05:48;;;;;;;4.50;4.20;;;28.00;31.60;;;;;;4981032;28;20550;-71
2022/08/11 15:14:08;;;;;;;3.33;3.13;;;28.00;31.60;;;;;;5013772;28;20833;-71
2022/08/11 15:19:32;;;;;;;4.40;3.40;;;28.00;31.50;;;;;;5005542;28;20449;-72
2022/08/11 15:24:58;;;;;;;4.10;3.80;;;28.00;31.60;;;;;;5014914;28;20469;-71
2022/08/11 15:38:47;;;;;;;3.70;3.50;;;28.10;31.80;;;;;;4999527;28;20464;-71
2022/08/11 15:47:27;;;;;;;3.80;3.50;;;28.10;31.90;;;;;;5018139;28;20540;-72
2022/08/11 15:50:00;;;;;;;3.93;3.73;;;28.10;31.70;;;;;;5018085;28;20937;-72
2022/08/11 15:52:48;;;;;;;3.90;3.60;;;28.10;31.80;;;;;;5004466;28;20481;-72
2022/08/11 15:55:18;;;;;;;3.47;3.27;;;28.10;31.70;;;;;;5000223;28;20496;-72
2022/08/11 16:06:39;;;;;;;3.57;3.37;;;28.10;32.00;;;;;;5006718;28;20472;-71
2022/08/11 16:09:22;;;;;;;3.97;3.67;;;28.10;31.90;;;;;;5011628;28;20477;-72
2022/08/11 16:11:52;;;;;;;3.23;3.03;;;28.10;32.10;;;;;;5017495;28;21042;-72
2022/08/11 16:17:11;;;;;;;3.80;3.60;;;28.20;32.20;;;;;;5024205;28;20449;-71
2022/08/11 16:19:44;;;;;;;3.83;3.60;;;28.20;32.20;;;;;;4996218;28;20474;-72
2022/08/11 16:22:17;;;;;;;3.87;3.60;;;28.20;32.20;;;;;;5002446;28;20473;-72
2022/08/11 16:24:46;;;;;;;3.90;3.60;;;28.20;32.10;;;;;;5005486;28;20457;-72
2022/08/11 16:27:38;;;;;;;3.90;3.60;;;28.20;32.10;;;;;;4992930;28;20535;-72
2022/08/11 16:30:09;;;;;;;3.67;3.37;;;28.20;32.10;;;;;;5009371;28;20465;-72
2022/08/11 16:32:41;;;;;;;3.80;3.50;;;28.20;32.00;;;;;;4993181;28;20458;-72
2022/08/11 16:40:52;;;;;;;3.50;3.30;;;28.20;31.90;;;;;;4995690;28;21048;-71
2022/08/11 16:49:04;;;;;;;3.47;3.27;;;28.20;32.00;;;;;;5008792;28;20496;-72
2022/08/11 16:51:34;;;;;;;3.53;3.27;;;28.20;31.90;;;;;;5004841;28;21069;-72
2022/08/11 16:54:03;;;;;;;3.80;3.60;;;28.30;31.90;;;;;;5005336;28;20441;-72
2022/08/11 16:56:37;;;;;;;3.67;3.37;;;28.30;31.90;;;;;;5004798;28;20488;-72
2022/08/11 16:59:14;;;;;;;3.93;3.60;;;28.30;31.70;;;;;;5010918;28;20706;-72
2022/08/11 17:01:48;;;;;;;3.77;3.57;;;28.20;31.60;;;;;;5004656;28;20464;-72
2022/08/11 17:13:31;;;;;;;3.90;3.60;;;28.30;32.10;;;;;;4999742;28;20457;-72
2022/08/11 17:16:10;;;;;;;3.70;3.50;;;28.30;32.10;;;;;;5001285;28;20469;-72
2022/08/11 17:18:45;;;;;;;4.47;4.17;;;28.30;32.10;;;;;;5001120;28;20579;-71
2022/08/11 17:21:21;;;;;;;3.43;3.23;;;28.30;32.20;;;;;;5002839;28;20457;-72
2022/08/11 17:23:53;;;;;;;4.20;3.90;;;28.30;32.20;;;;;;5004751;28;20951;-72
2022/08/11 17:26:52;;;;;;;3.90;3.60;;;28.30;32.30;;;;;;5004742;28;20468;-72
2022/08/11 17:29:18;;;;;;;4.10;3.80;;;28.30;32.20;;;;;;5013769;28;20468;-72
2022/08/11 17:37:23;;;;;;;3.40;3.17;;;28.40;32.30;;;;;;5009062;28;20806;-72
2022/08/11 17:39:55;;;;;;;3.07;2.87;;;28.40;32.30;;;;;;5010439;28;20474;-71
2022/08/11 17:50:49;;;;;;;3.70;3.50;;;28.30;32.30;;;;;;5002863;28;20487;-71
2022/08/11 18:01:41;;;;;;;3.70;3.50;;;28.40;32.40;;;;;;5012444;28;20515;-71
2022/08/11 18:04:13;;;;;;;3.67;3.47;;;28.40;32.40;;;;;;4998302;28;20463;-72
2022/08/11 18:06:44;;;;;;;3.03;2.83;;;28.40;32.50;;;;;;5020485;28;20540;-73
